sensor_id;sensor_type;location;lat;lon;timestamp;temperature;humidity
23629;DHT22;11991;57.150;-2.134;2023-08-20T00:01:35;16.70;99.90
23629;DHT22;11991;57.150;-2.134;2023-08-20T00:04:02;16.70;99.90
23629;DHT22;11991;57.150;-2.134;2023-08-20T00:06:30;16.70;99.90
23629;DHT22;11991;57.150;-2.134;2023-08-20T00:08:57;16.70;99.90
23629;DHT22;11991;57.150;-2.134;2023-08-20T00:11:24;16.70;99.90
23629;DHT22;11991;57.150;-2.134;2023-08-20T00:13:52;16.70;99.90
23629;DHT22;11991;57.150;-2.134;2023-08-20T00:16:19;16.60;99.90
23629;DHT22;11991;57.150;-2.134;2023-08-20T00:18:46;16.50;99.90
23629;DHT22;11991;57.150;-2.134;2023-08-20T00:21:14;16.50;99.90
23629;DHT22;11991;57.150;-2.134;2023-08-20T00:23:41;16.50;99.90
23629;DHT22;11991;57.150;-2.134;2023-08-20T00:26:09;16.40;99.90
23629;DHT22;11991;57.150;-2.134;2023-08-20T00:28:37;16.40;99.90
23629;DHT22;11991;57.150;-2.134;2023-08-20T00:31:05;16.40;99.90
23629;DHT22;11991;57.150;-2.134;2023-08-20T00:33:33;16.40;99.90
23629;DHT22;11991;57.150;-2.134;2023-08-20T00:36:00;16.40;99.90
23629;DHT22;11991;57.150;-2.134;2023-08-20T00:38:27;16.40;99.90
23629;DHT22;11991;57.150;-2.134;2023-08-20T00:40:54;16.40;99.90
23629;DHT22;11991;57.150;-2.134;2023-08-20T00:43:21;16.40;99.90
23629;DHT22;11991;57.150;-2.134;2023-08-20T00:45:48;16.40;99.90
23629;DHT22;11991;57.150;-2.134;2023-08-20T00:48:16;16.40;99.90
23629;DHT22;11991;57.150;-2.134;2023-08-20T00:50:44;16.40;99.90
23629;DHT22;11991;57.150;-2.134;2023-08-20T00:53:12;16.30;99.90
23629;DHT22;11991;57.150;-2.134;2023-08-20T00:55:41;16.30;99.90
23629;DHT22;11991;57.150;-2.134;2023-08-20T00:58:10;16.30;99.90
23629;DHT22;11991;57.150;-2.134;2023-08-20T01:00:37;16.30;99.90
23629;DHT22;11991;57.150;-2.134;2023-08-20T01:03:05;16.30;99.90
23629;DHT22;11991;57.150;-2.134;2023-08-20T01:05:34;16.30;99.90
23629;DHT22;11991;57.150;-2.134;2023-08-20T01:08:37;16.40;99.90
23629;DHT22;11991;57.150;-2.134;2023-08-20T01:11:29;16.40;99.90
23629;DHT22;11991;57.150;-2.134;2023-08-20T01:13:58;16.40;99.90
23629;DHT22;11991;57.150;-2.134;2023-08-20T01:16:26;16.50;99.90
23629;DHT22;11991;57.150;-2.134;2023-08-20T01:18:53;16.50;99.90
23629;DHT22;11991;57.150;-2.134;2023-08-20T01:21:34;16.50;99.90
23629;DHT22;11991;57.150;-2.134;2023-08-20T01:27:19;16.60;99.90
23629;DHT22;11991;57.150;-2.134;2023-08-20T01:29:52;16.70;99.90
23629;DHT22;11991;57.150;-2.134;2023-08-20T01:32:20;16.70;99.90
23629;DHT22;11991;57.150;-2.134;2023-08-20T01:34:49;16.70;99.90
23629;DHT22;11991;57.150;-2.134;2023-08-20T01:37:16;16.70;99.90
23629;DHT22;11991;57.150;-2.134;2023-08-20T01:39:43;16.70;99.90
23629;DHT22;11991;57.150;-2.134;2023-08-20T01:42:10;16.80;99.90
23629;DHT22;11991;57.150;-2.134;2023-08-20T01:44:38;16.70;99.90
23629;DHT22;11991;57.150;-2.134;2023-08-20T01:47:05;16.80;99.90
23629;DHT22;11991;57.150;-2.134;2023-08-20T01:49:32;16.70;99.90
23629;DHT22;11991;57.150;-2.134;2023-08-20T01:51:59;16.60;99.90
23629;DHT22;11991;57.150;-2.134;2023-08-20T01:54:26;16.60;99.90
23629;DHT22;11991;57.150;-2.134;2023-08-20T01:56:54;16.60;99.90
23629;DHT22;11991;57.150;-2.134;2023-08-20T01:59:22;16.60;99.90
23629;DHT22;11991;57.150;-2.134;2023-08-20T02:01:50;16.50;99.90
23629;DHT22;11991;57.150;-2.134;2023-08-20T02:04:17;16.50;99.90
23629;DHT22;11991;57.150;-2.134;2023-08-20T02:06:44;16.50;99.90
23629;DHT22;11991;57.150;-2.134;2023-08-20T02:09:13;16.50;99.90
23629;DHT22;11991;57.150;-2.134;2023-08-20T02:11:40;16.60;99.90
23629;DHT22;11991;57.150;-2.134;2023-08-20T02:14:09;16.50;99.90
23629;DHT22;11991;57.150;-2.134;2023-08-20T02:16:36;16.60;99.90
23629;DHT22;11991;57.150;-2.134;2023-08-20T02:19:04;16.50;99.90
23629;DHT22;11991;57.150;-2.134;2023-08-20T02:21:33;16.50;99.90
23629;DHT22;11991;57.150;-2.134;2023-08-20T02:24:01;16.50;99.90
23629;DHT22;11991;57.150;-2.134;2023-08-20T02:26:28;16.50;99.90
23629;DHT22;11991;57.150;-2.134;2023-08-20T02:28:55;16.50;99.90
23629;DHT22;11991;57.150;-2.134;2023-08-20T02:31:22;16.50;99.90
23629;DHT22;11991;57.150;-2.134;2023-08-20T02:33:49;16.40;99.90
23629;DHT22;11991;57.150;-2.134;2023-08-20T02:36:16;16.40;99.90
23629;DHT22;11991;57.150;-2.134;2023-08-20T02:38:44;16.40;99.90
23629;DHT22;11991;57.150;-2.134;2023-08-20T02:41:12;16.30;99.90
23629;DHT22;11991;57.150;-2.134;2023-08-20T02:43:41;16.30;99.90
23629;DHT22;11991;57.150;-2.134;2023-08-20T02:46:08;16.30;99.90
23629;DHT22;11991;57.150;-2.134;2023-08-20T02:48:35;16.40;99.90
23629;DHT22;11991;57.150;-2.134;2023-08-20T02:51:02;16.40;99.90
23629;DHT22;11991;57.150;-2.134;2023-08-20T02:53:29;16.30;99.90
23629;DHT22;11991;57.150;-2.134;2023-08-20T02:55:56;16.40;99.90
23629;DHT22;11991;57.150;-2.134;2023-08-20T02:58:23;16.30;99.90
23629;DHT22;11991;57.150;-2.134;2023-08-20T03:00:51;16.30;99.90
23629;DHT22;11991;57.150;-2.134;2023-08-20T03:03:18;16.30;99.90
23629;DHT22;11991;57.150;-2.134;2023-08-20T03:05:45;16.40;99.90
23629;DHT22;11991;57.150;-2.134;2023-08-20T03:08:12;16.40;99.90
23629;DHT22;11991;57.150;-2.134;2023-08-20T03:10:39;16.40;99.90
23629;DHT22;11991;57.150;-2.134;2023-08-20T03:13:06;16.40;99.90
23629;DHT22;11991;57.150;-2.134;2023-08-20T03:15:34;16.40;99.90
23629;DHT22;11991;57.150;-2.134;2023-08-20T03:18:01;16.30;99.90
23629;DHT22;11991;57.150;-2.134;2023-08-20T03:20:28;16.30;99.90
23629;DHT22;11991;57.150;-2.134;2023-08-20T03:22:58;16.30;99.90
23629;DHT22;11991;57.150;-2.134;2023-08-20T03:25:25;16.20;99.90
23629;DHT22;11991;57.150;-2.134;2023-08-20T03:27:52;16.20;99.90
23629;DHT22;11991;57.150;-2.134;2023-08-20T03:30:20;16.20;99.90
23629;DHT22;11991;57.150;-2.134;2023-08-20T03:32:47;16.20;99.90
23629;DHT22;11991;57.150;-2.134;2023-08-20T03:35:14;16.20;99.90
23629;DHT22;11991;57.150;-2.134;2023-08-20T03:37:42;16.10;99.90
23629;DHT22;11991;57.150;-2.134;2023-08-20T03:40:10;16.10;99.90
23629;DHT22;11991;57.150;-2.134;2023-08-20T03:42:37;16.10;99.90
23629;DHT22;11991;57.150;-2.134;2023-08-20T03:45:04;16.10;99.90
23629;DHT22;11991;57.150;-2.134;2023-08-20T03:47:32;16.10;99.90
23629;DHT22;11991;57.150;-2.134;2023-08-20T03:50:00;16.10;99.90
23629;DHT22;11991;57.150;-2.134;2023-08-20T03:52:27;16.10;99.90
23629;DHT22;11991;57.150;-2.134;2023-08-20T03:54:54;16.10;99.90
23629;DHT22;11991;57.150;-2.134;2023-08-20T03:57:21;16.10;99.90
23629;DHT22;11991;57.150;-2.134;2023-08-20T03:59:50;16.10;99.90
23629;DHT22;11991;57.150;-2.134;2023-08-20T04:02:17;16.10;99.90
23629;DHT22;11991;57.150;-2.134;2023-08-20T04:04:44;16.10;99.90
23629;DHT22;11991;57.150;-2.134;2023-08-20T04:07:12;16.10;99.90
23629;DHT22;11991;57.150;-2.134;2023-08-20T04:09:39;16.20;99.90
23629;DHT22;11991;57.150;-2.134;2023-08-20T04:12:06;16.10;99.90
23629;DHT22;11991;57.150;-2.134;2023-08-20T04:14:36;16.10;99.90
23629;DHT22;11991;57.150;-2.134;2023-08-20T04:17:03;16.10;99.90
23629;DHT22;11991;57.150;-2.134;2023-08-20T04:19:31;16.10;99.90
23629;DHT22;11991;57.150;-2.134;2023-08-20T04:21:58;16.10;99.90
23629;DHT22;11991;57.150;-2.134;2023-08-20T04:24:26;16.10;99.90
23629;DHT22;11991;57.150;-2.134;2023-08-20T04:26:53;16.10;99.90
23629;DHT22;11991;57.150;-2.134;2023-08-20T04:29:25;16.10;99.90
23629;DHT22;11991;57.150;-2.134;2023-08-20T04:31:52;16.10;99.90
23629;DHT22;11991;57.150;-2.134;2023-08-20T04:34:19;16.10;99.90
23629;DHT22;11991;57.150;-2.134;2023-08-20T04:36:50;16.10;99.90
23629;DHT22;11991;57.150;-2.134;2023-08-20T04:39:19;16.10;99.90
23629;DHT22;11991;57.150;-2.134;2023-08-20T04:41:51;16.10;99.90
23629;DHT22;11991;57.150;-2.134;2023-08-20T04:44:20;16.00;99.90
23629;DHT22;11991;57.150;-2.134;2023-08-20T04:46:48;16.00;99.90
23629;DHT22;11991;57.150;-2.134;2023-08-20T04:49:17;16.00;99.90
23629;DHT22;11991;57.150;-2.134;2023-08-20T04:51:44;16.00;99.90
23629;DHT22;11991;57.150;-2.134;2023-08-20T04:54:11;16.00;99.90
23629;DHT22;11991;57.150;-2.134;2023-08-20T04:56:39;16.00;99.90
23629;DHT22;11991;57.150;-2.134;2023-08-20T04:59:06;16.00;99.90
23629;DHT22;11991;57.150;-2.134;2023-08-20T05:01:51;16.00;99.90
23629;DHT22;11991;57.150;-2.134;2023-08-20T05:04:24;16.00;99.90
23629;DHT22;11991;57.150;-2.134;2023-08-20T05:06:51;16.00;99.90
23629;DHT22;11991;57.150;-2.134;2023-08-20T05:09:19;15.90;99.90
23629;DHT22;11991;57.150;-2.134;2023-08-20T05:11:46;15.90;99.90
23629;DHT22;11991;57.150;-2.134;2023-08-20T05:14:14;15.90;99.90
23629;DHT22;11991;57.150;-2.134;2023-08-20T05:16:41;15.80;99.90
23629;DHT22;11991;57.150;-2.134;2023-08-20T05:19:08;15.90;99.90
23629;DHT22;11991;57.150;-2.134;2023-08-20T05:21:35;15.90;99.90
23629;DHT22;11991;57.150;-2.134;2023-08-20T05:24:02;15.90;99.90
23629;DHT22;11991;57.150;-2.134;2023-08-20T05:26:30;15.90;99.90
23629;DHT22;11991;57.150;-2.134;2023-08-20T05:28:58;15.90;99.90
23629;DHT22;11991;57.150;-2.134;2023-08-20T05:31:25;15.90;99.90
23629;DHT22;11991;57.150;-2.134;2023-08-20T05:33:52;16.00;99.90
23629;DHT22;11991;57.150;-2.134;2023-08-20T05:36:20;15.90;99.90
23629;DHT22;11991;57.150;-2.134;2023-08-20T05:38:47;16.00;99.90
23629;DHT22;11991;57.150;-2.134;2023-08-20T05:41:15;16.00;99.90
23629;DHT22;11991;57.150;-2.134;2023-08-20T05:43:42;16.00;99.90
23629;DHT22;11991;57.150;-2.134;2023-08-20T05:46:09;16.10;99.90
23629;DHT22;11991;57.150;-2.134;2023-08-20T05:48:37;16.10;99.90
23629;DHT22;11991;57.150;-2.134;2023-08-20T05:51:04;16.10;99.90
23629;DHT22;11991;57.150;-2.134;2023-08-20T05:53:32;16.10;99.90
23629;DHT22;11991;57.150;-2.134;2023-08-20T05:55:59;16.20;99.90
23629;DHT22;11991;57.150;-2.134;2023-08-20T05:58:26;16.20;99.90
23629;DHT22;11991;57.150;-2.134;2023-08-20T06:00:53;16.20;99.90
23629;DHT22;11991;57.150;-2.134;2023-08-20T06:03:20;16.20;99.90
23629;DHT22;11991;57.150;-2.134;2023-08-20T06:05:47;16.30;99.90
23629;DHT22;11991;57.150;-2.134;2023-08-20T06:08:14;16.30;99.90
23629;DHT22;11991;57.150;-2.134;2023-08-20T06:10:41;16.30;99.90
23629;DHT22;11991;57.150;-2.134;2023-08-20T06:13:09;16.40;99.90
23629;DHT22;11991;57.150;-2.134;2023-08-20T06:15:36;16.40;99.90
23629;DHT22;11991;57.150;-2.134;2023-08-20T06:18:03;16.40;99.90
23629;DHT22;11991;57.150;-2.134;2023-08-20T06:20:30;16.40;99.90
23629;DHT22;11991;57.150;-2.134;2023-08-20T06:22:57;16.40;99.90
23629;DHT22;11991;57.150;-2.134;2023-08-20T06:25:24;16.50;99.90
23629;DHT22;11991;57.150;-2.134;2023-08-20T06:27:51;16.50;99.90
23629;DHT22;11991;57.150;-2.134;2023-08-20T06:30:18;16.50;99.90
23629;DHT22;11991;57.150;-2.134;2023-08-20T06:32:46;16.60;99.90
23629;DHT22;11991;57.150;-2.134;2023-08-20T06:35:13;16.60;99.90
23629;DHT22;11991;57.150;-2.134;2023-08-20T06:37:40;16.70;99.90
23629;DHT22;11991;57.150;-2.134;2023-08-20T06:40:08;16.70;99.90
23629;DHT22;11991;57.150;-2.134;2023-08-20T06:42:35;16.70;99.90
23629;DHT22;11991;57.150;-2.134;2023-08-20T06:45:06;16.80;99.90
23629;DHT22;11991;57.150;-2.134;2023-08-20T06:47:34;16.80;99.90
23629;DHT22;11991;57.150;-2.134;2023-08-20T06:50:02;16.90;99.90
23629;DHT22;11991;57.150;-2.134;2023-08-20T06:52:29;16.90;99.90
23629;DHT22;11991;57.150;-2.134;2023-08-20T06:54:56;16.90;99.90
23629;DHT22;11991;57.150;-2.134;2023-08-20T06:57:24;17.00;99.90
23629;DHT22;11991;57.150;-2.134;2023-08-20T06:59:52;17.00;99.90
23629;DHT22;11991;57.150;-2.134;2023-08-20T07:02:19;17.00;99.90
23629;DHT22;11991;57.150;-2.134;2023-08-20T07:04:46;17.10;99.90
23629;DHT22;11991;57.150;-2.134;2023-08-20T07:07:13;17.10;99.90
23629;DHT22;11991;57.150;-2.134;2023-08-20T07:09:41;17.20;99.90
23629;DHT22;11991;57.150;-2.134;2023-08-20T07:12:08;17.20;99.90
23629;DHT22;11991;57.150;-2.134;2023-08-20T07:14:35;17.30;99.90
23629;DHT22;11991;57.150;-2.134;2023-08-20T07:17:03;17.30;99.90
23629;DHT22;11991;57.150;-2.134;2023-08-20T07:19:30;17.30;99.90
23629;DHT22;11991;57.150;-2.134;2023-08-20T07:21:57;17.30;99.90
23629;DHT22;11991;57.150;-2.134;2023-08-20T07:24:24;17.40;99.90
23629;DHT22;11991;57.150;-2.134;2023-08-20T07:26:56;17.40;99.90
23629;DHT22;11991;57.150;-2.134;2023-08-20T07:29:27;17.40;99.90
23629;DHT22;11991;57.150;-2.134;2023-08-20T07:31:57;17.50;99.90
23629;DHT22;11991;57.150;-2.134;2023-08-20T07:34:24;17.50;99.90
23629;DHT22;11991;57.150;-2.134;2023-08-20T07:36:51;17.50;99.90
23629;DHT22;11991;57.150;-2.134;2023-08-20T07:39:18;17.60;99.90
23629;DHT22;11991;57.150;-2.134;2023-08-20T07:41:45;17.60;99.90
23629;DHT22;11991;57.150;-2.134;2023-08-20T07:44:12;17.60;99.90
23629;DHT22;11991;57.150;-2.134;2023-08-20T07:46:40;17.60;99.90
23629;DHT22;11991;57.150;-2.134;2023-08-20T07:49:07;17.60;99.90
23629;DHT22;11991;57.150;-2.134;2023-08-20T07:51:35;17.70;99.90
23629;DHT22;11991;57.150;-2.134;2023-08-20T07:54:02;17.70;99.90
23629;DHT22;11991;57.150;-2.134;2023-08-20T07:56:29;17.70;99.90
23629;DHT22;11991;57.150;-2.134;2023-08-20T07:58:56;17.70;99.90
23629;DHT22;11991;57.150;-2.134;2023-08-20T08:01:23;17.70;99.90
23629;DHT22;11991;57.150;-2.134;2023-08-20T08:03:50;17.80;99.90
23629;DHT22;11991;57.150;-2.134;2023-08-20T08:06:18;17.80;99.90
23629;DHT22;11991;57.150;-2.134;2023-08-20T08:08:45;17.80;99.90
23629;DHT22;11991;57.150;-2.134;2023-08-20T08:11:12;17.90;99.90
23629;DHT22;11991;57.150;-2.134;2023-08-20T08:13:40;18.00;99.90
23629;DHT22;11991;57.150;-2.134;2023-08-20T08:16:07;18.00;99.90
23629;DHT22;11991;57.150;-2.134;2023-08-20T08:18:35;18.00;99.90
23629;DHT22;11991;57.150;-2.134;2023-08-20T08:21:02;18.10;99.90
23629;DHT22;11991;57.150;-2.134;2023-08-20T08:23:30;18.10;99.90
23629;DHT22;11991;57.150;-2.134;2023-08-20T08:25:57;18.20;99.90
23629;DHT22;11991;57.150;-2.134;2023-08-20T08:28:24;18.20;99.90
23629;DHT22;11991;57.150;-2.134;2023-08-20T08:30:51;18.20;99.90
23629;DHT22;11991;57.150;-2.134;2023-08-20T08:33:18;18.20;99.90
23629;DHT22;11991;57.150;-2.134;2023-08-20T08:35:45;18.20;99.90
23629;DHT22;11991;57.150;-2.134;2023-08-20T08:38:12;18.20;99.90
23629;DHT22;11991;57.150;-2.134;2023-08-20T08:40:40;18.20;99.90
23629;DHT22;11991;57.150;-2.134;2023-08-20T08:43:10;18.30;99.90
23629;DHT22;11991;57.150;-2.134;2023-08-20T08:45:47;18.30;99.90
23629;DHT22;11991;57.150;-2.134;2023-08-20T08:48:17;18.40;99.90
23629;DHT22;11991;57.150;-2.134;2023-08-20T08:50:46;18.40;99.90
23629;DHT22;11991;57.150;-2.134;2023-08-20T08:53:13;18.40;99.90
23629;DHT22;11991;57.150;-2.134;2023-08-20T08:55:40;18.40;99.90
23629;DHT22;11991;57.150;-2.134;2023-08-20T08:58:09;18.50;99.90
23629;DHT22;11991;57.150;-2.134;2023-08-20T09:00:36;18.50;99.90
23629;DHT22;11991;57.150;-2.134;2023-08-20T09:03:04;18.50;99.90
23629;DHT22;11991;57.150;-2.134;2023-08-20T09:05:31;18.60;99.90
23629;DHT22;11991;57.150;-2.134;2023-08-20T09:07:58;18.60;99.90
23629;DHT22;11991;57.150;-2.134;2023-08-20T09:10:26;18.60;99.90
23629;DHT22;11991;57.150;-2.134;2023-08-20T09:12:55;18.60;99.90
23629;DHT22;11991;57.150;-2.134;2023-08-20T09:15:31;18.60;99.90
23629;DHT22;11991;57.150;-2.134;2023-08-20T09:18:01;18.60;99.90
23629;DHT22;11991;57.150;-2.134;2023-08-20T09:20:36;18.60;99.90
23629;DHT22;11991;57.150;-2.134;2023-08-20T09:23:09;18.70;99.90
23629;DHT22;11991;57.150;-2.134;2023-08-20T09:25:37;18.70;99.90
23629;DHT22;11991;57.150;-2.134;2023-08-20T09:28:04;18.70;99.90
23629;DHT22;11991;57.150;-2.134;2023-08-20T09:30:32;18.70;99.90
23629;DHT22;11991;57.150;-2.134;2023-08-20T09:33:11;18.70;99.90
23629;DHT22;11991;57.150;-2.134;2023-08-20T09:35:39;18.70;99.90
23629;DHT22;11991;57.150;-2.134;2023-08-20T09:38:16;18.80;99.90
23629;DHT22;11991;57.150;-2.134;2023-08-20T09:40:50;18.80;99.90
23629;DHT22;11991;57.150;-2.134;2023-08-20T09:43:19;18.80;99.90
23629;DHT22;11991;57.150;-2.134;2023-08-20T09:45:47;18.80;99.90
23629;DHT22;11991;57.150;-2.134;2023-08-20T09:48:19;18.90;99.90
23629;DHT22;11991;57.150;-2.134;2023-08-20T09:50:47;18.90;99.90
23629;DHT22;11991;57.150;-2.134;2023-08-20T09:54:06;18.90;99.90
23629;DHT22;11991;57.150;-2.134;2023-08-20T09:56:19;18.90;99.90
23629;DHT22;11991;57.150;-2.134;2023-08-20T09:58:49;19.00;99.90
23629;DHT22;11991;57.150;-2.134;2023-08-20T10:01:17;19.00;99.90
23629;DHT22;11991;57.150;-2.134;2023-08-20T10:03:45;19.10;99.90
23629;DHT22;11991;57.150;-2.134;2023-08-20T10:06:12;19.10;99.90
23629;DHT22;11991;57.150;-2.134;2023-08-20T10:08:40;19.10;99.90
23629;DHT22;11991;57.150;-2.134;2023-08-20T10:11:07;19.10;99.90
23629;DHT22;11991;57.150;-2.134;2023-08-20T10:13:34;19.10;99.90
23629;DHT22;11991;57.150;-2.134;2023-08-20T10:16:01;19.10;99.90
23629;DHT22;11991;57.150;-2.134;2023-08-20T10:18:28;19.10;99.90
23629;DHT22;11991;57.150;-2.134;2023-08-20T10:20:58;19.20;99.90
23629;DHT22;11991;57.150;-2.134;2023-08-20T10:23:29;19.20;99.90
23629;DHT22;11991;57.150;-2.134;2023-08-20T10:26:07;19.30;99.90
23629;DHT22;11991;57.150;-2.134;2023-08-20T10:28:35;19.30;99.90
23629;DHT22;11991;57.150;-2.134;2023-08-20T10:31:10;19.40;99.90
23629;DHT22;11991;57.150;-2.134;2023-08-20T10:36:19;19.50;99.90
23629;DHT22;11991;57.150;-2.134;2023-08-20T10:38:54;19.50;99.90
23629;DHT22;11991;57.150;-2.134;2023-08-20T10:41:26;19.50;99.90
23629;DHT22;11991;57.150;-2.134;2023-08-20T10:43:58;19.50;99.90
23629;DHT22;11991;57.150;-2.134;2023-08-20T10:46:27;19.60;99.90
23629;DHT22;11991;57.150;-2.134;2023-08-20T10:48:58;19.60;99.90
23629;DHT22;11991;57.150;-2.134;2023-08-20T10:51:33;19.60;99.90
23629;DHT22;11991;57.150;-2.134;2023-08-20T11:01:46;19.60;99.90
23629;DHT22;11991;57.150;-2.134;2023-08-20T11:04:19;19.60;99.90
23629;DHT22;11991;57.150;-2.134;2023-08-20T11:06:49;19.70;99.90
23629;DHT22;11991;57.150;-2.134;2023-08-20T11:09:19;19.70;99.90
23629;DHT22;11991;57.150;-2.134;2023-08-20T11:11:48;19.80;99.90
23629;DHT22;11991;57.150;-2.134;2023-08-20T11:14:17;19.80;99.90
23629;DHT22;11991;57.150;-2.134;2023-08-20T11:16:44;19.80;99.90
23629;DHT22;11991;57.150;-2.134;2023-08-20T11:19:13;19.90;99.90
23629;DHT22;11991;57.150;-2.134;2023-08-20T11:21:42;20.00;99.90
23629;DHT22;11991;57.150;-2.134;2023-08-20T11:24:10;20.00;99.90
23629;DHT22;11991;57.150;-2.134;2023-08-20T11:26:41;20.10;99.90
23629;DHT22;11991;57.150;-2.134;2023-08-20T11:29:12;20.10;99.90
23629;DHT22;11991;57.150;-2.134;2023-08-20T11:31:39;20.20;99.90
23629;DHT22;11991;57.150;-2.134;2023-08-20T11:34:07;20.20;99.90
23629;DHT22;11991;57.150;-2.134;2023-08-20T11:36:38;20.30;99.90
23629;DHT22;11991;57.150;-2.134;2023-08-20T11:39:07;20.30;99.90
23629;DHT22;11991;57.150;-2.134;2023-08-20T11:41:39;20.30;99.90
23629;DHT22;11991;57.150;-2.134;2023-08-20T11:44:09;20.40;99.90
23629;DHT22;11991;57.150;-2.134;2023-08-20T11:46:43;20.40;99.90
23629;DHT22;11991;57.150;-2.134;2023-08-20T11:49:12;20.50;99.90
23629;DHT22;11991;57.150;-2.134;2023-08-20T11:51:41;20.60;99.90
23629;DHT22;11991;57.150;-2.134;2023-08-20T11:54:10;20.60;99.90
23629;DHT22;11991;57.150;-2.134;2023-08-20T11:56:46;20.60;99.90
23629;DHT22;11991;57.150;-2.134;2023-08-20T11:59:14;20.60;99.90
23629;DHT22;11991;57.150;-2.134;2023-08-20T12:01:42;20.60;99.90
23629;DHT22;11991;57.150;-2.134;2023-08-20T12:04:10;20.70;99.90
23629;DHT22;11991;57.150;-2.134;2023-08-20T12:06:38;20.80;99.90
23629;DHT22;11991;57.150;-2.134;2023-08-20T12:09:21;20.80;99.90
23629;DHT22;11991;57.150;-2.134;2023-08-20T12:11:52;20.80;99.90
23629;DHT22;11991;57.150;-2.134;2023-08-20T12:14:22;20.80;99.90
23629;DHT22;11991;57.150;-2.134;2023-08-20T12:16:49;20.80;99.90
23629;DHT22;11991;57.150;-2.134;2023-08-20T12:19:20;20.70;99.90
23629;DHT22;11991;57.150;-2.134;2023-08-20T12:21:47;20.70;99.90
23629;DHT22;11991;57.150;-2.134;2023-08-20T12:24:15;20.70;99.90
23629;DHT22;11991;57.150;-2.134;2023-08-20T12:26:43;20.60;99.90
23629;DHT22;11991;57.150;-2.134;2023-08-20T12:29:10;20.60;99.90
23629;DHT22;11991;57.150;-2.134;2023-08-20T12:31:38;20.50;99.90
23629;DHT22;11991;57.150;-2.134;2023-08-20T12:34:05;20.40;99.90
23629;DHT22;11991;57.150;-2.134;2023-08-20T12:36:32;20.40;99.90
23629;DHT22;11991;57.150;-2.134;2023-08-20T12:38:59;20.50;99.90
23629;DHT22;11991;57.150;-2.134;2023-08-20T12:41:26;20.50;99.90
23629;DHT22;11991;57.150;-2.134;2023-08-20T12:43:53;20.50;99.90
23629;DHT22;11991;57.150;-2.134;2023-08-20T12:46:20;20.60;99.90
23629;DHT22;11991;57.150;-2.134;2023-08-20T12:48:48;20.70;99.90
23629;DHT22;11991;57.150;-2.134;2023-08-20T12:51:16;20.80;99.90
23629;DHT22;11991;57.150;-2.134;2023-08-20T12:53:44;20.90;99.90
23629;DHT22;11991;57.150;-2.134;2023-08-20T12:56:12;20.90;99.90
23629;DHT22;11991;57.150;-2.134;2023-08-20T12:58:39;20.90;99.90
23629;DHT22;11991;57.150;-2.134;2023-08-20T13:01:06;20.80;99.90
23629;DHT22;11991;57.150;-2.134;2023-08-20T13:03:34;20.70;99.90
23629;DHT22;11991;57.150;-2.134;2023-08-20T13:06:02;20.50;99.90
23629;DHT22;11991;57.150;-2.134;2023-08-20T13:08:29;20.40;99.90
23629;DHT22;11991;57.150;-2.134;2023-08-20T13:10:58;20.30;99.90
23629;DHT22;11991;57.150;-2.134;2023-08-20T13:13:27;20.20;99.90
23629;DHT22;11991;57.150;-2.134;2023-08-20T13:15:54;20.20;99.90
23629;DHT22;11991;57.150;-2.134;2023-08-20T13:18:22;20.10;99.90
23629;DHT22;11991;57.150;-2.134;2023-08-20T13:20:52;20.10;99.90
23629;DHT22;11991;57.150;-2.134;2023-08-20T13:23:20;20.20;99.90
23629;DHT22;11991;57.150;-2.134;2023-08-20T13:25:47;20.20;99.90
23629;DHT22;11991;57.150;-2.134;2023-08-20T13:28:14;20.20;99.90
23629;DHT22;11991;57.150;-2.134;2023-08-20T13:30:41;20.20;99.90
23629;DHT22;11991;57.150;-2.134;2023-08-20T13:33:08;20.30;99.90
23629;DHT22;11991;57.150;-2.134;2023-08-20T13:35:35;20.30;99.90
23629;DHT22;11991;57.150;-2.134;2023-08-20T13:38:03;20.20;99.90
23629;DHT22;11991;57.150;-2.134;2023-08-20T13:40:31;20.20;99.90
23629;DHT22;11991;57.150;-2.134;2023-08-20T13:42:58;20.10;99.90
23629;DHT22;11991;57.150;-2.134;2023-08-20T13:45:25;20.10;99.90
23629;DHT22;11991;57.150;-2.134;2023-08-20T13:47:53;20.10;99.90
23629;DHT22;11991;57.150;-2.134;2023-08-20T13:50:21;20.10;99.90
23629;DHT22;11991;57.150;-2.134;2023-08-20T13:52:48;20.10;99.90
23629;DHT22;11991;57.150;-2.134;2023-08-20T13:55:15;20.10;99.90
23629;DHT22;11991;57.150;-2.134;2023-08-20T13:57:42;20.00;99.90
23629;DHT22;11991;57.150;-2.134;2023-08-20T14:00:10;19.90;99.90
23629;DHT22;11991;57.150;-2.134;2023-08-20T14:02:40;19.90;99.90
23629;DHT22;11991;57.150;-2.134;2023-08-20T14:05:07;19.90;99.90
23629;DHT22;11991;57.150;-2.134;2023-08-20T14:07:34;19.90;99.90
23629;DHT22;11991;57.150;-2.134;2023-08-20T14:10:03;19.90;99.90
23629;DHT22;11991;57.150;-2.134;2023-08-20T14:12:31;19.90;99.90
23629;DHT22;11991;57.150;-2.134;2023-08-20T14:14:58;20.00;99.90
23629;DHT22;11991;57.150;-2.134;2023-08-20T14:17:25;20.00;99.90
23629;DHT22;11991;57.150;-2.134;2023-08-20T14:19:53;20.00;99.90
23629;DHT22;11991;57.150;-2.134;2023-08-20T14:22:20;20.00;99.90
23629;DHT22;11991;57.150;-2.134;2023-08-20T14:24:47;20.00;99.90
23629;DHT22;11991;57.150;-2.134;2023-08-20T14:27:14;20.00;99.90
23629;DHT22;11991;57.150;-2.134;2023-08-20T14:29:41;20.10;99.90
23629;DHT22;11991;57.150;-2.134;2023-08-20T14:32:08;20.20;99.90
23629;DHT22;11991;57.150;-2.134;2023-08-20T14:34:35;20.20;99.90
23629;DHT22;11991;57.150;-2.134;2023-08-20T14:37:03;20.20;99.90
23629;DHT22;11991;57.150;-2.134;2023-08-20T14:39:31;20.10;99.90
23629;DHT22;11991;57.150;-2.134;2023-08-20T14:41:59;20.10;99.90
23629;DHT22;11991;57.150;-2.134;2023-08-20T14:44:27;20.10;99.90
23629;DHT22;11991;57.150;-2.134;2023-08-20T14:46:54;20.00;99.90
23629;DHT22;11991;57.150;-2.134;2023-08-20T14:49:21;20.00;99.90
23629;DHT22;11991;57.150;-2.134;2023-08-20T14:51:48;20.00;99.90
23629;DHT22;11991;57.150;-2.134;2023-08-20T14:54:15;20.00;99.90
23629;DHT22;11991;57.150;-2.134;2023-08-20T14:56:43;19.90;99.90
23629;DHT22;11991;57.150;-2.134;2023-08-20T14:59:10;19.80;99.90
23629;DHT22;11991;57.150;-2.134;2023-08-20T15:01:37;19.80;99.90
23629;DHT22;11991;57.150;-2.134;2023-08-20T15:04:05;19.70;99.90
23629;DHT22;11991;57.150;-2.134;2023-08-20T15:06:33;19.60;99.90
23629;DHT22;11991;57.150;-2.134;2023-08-20T15:09:00;19.60;99.90
23629;DHT22;11991;57.150;-2.134;2023-08-20T15:11:28;19.70;99.90
23629;DHT22;11991;57.150;-2.134;2023-08-20T15:13:55;19.70;99.90
23629;DHT22;11991;57.150;-2.134;2023-08-20T15:16:22;19.80;99.90
23629;DHT22;11991;57.150;-2.134;2023-08-20T15:18:49;19.80;99.90
23629;DHT22;11991;57.150;-2.134;2023-08-20T15:21:16;19.80;99.90
23629;DHT22;11991;57.150;-2.134;2023-08-20T15:23:43;19.80;99.90
23629;DHT22;11991;57.150;-2.134;2023-08-20T15:26:11;19.80;99.90
23629;DHT22;11991;57.150;-2.134;2023-08-20T15:28:38;19.90;99.90
23629;DHT22;11991;57.150;-2.134;2023-08-20T15:31:06;19.90;99.90
23629;DHT22;11991;57.150;-2.134;2023-08-20T15:33:33;19.90;99.90
23629;DHT22;11991;57.150;-2.134;2023-08-20T15:36:00;19.90;99.90